createdAt,value
2019-03-20T00:00:59.313Z,6.23
2019-03-20T00:03:30.613Z,6.16
2019-03-20T00:06:01.872Z,6.14
2019-03-20T00:08:33.261Z,6.01
2019-03-20T00:11:04.609Z,6.03
2019-03-20T00:13:36.006Z,6.10
2019-03-20T00:16:07.362Z,6.12
2019-03-20T00:18:38.740Z,6.09
2019-03-20T00:21:10.102Z,6.20
2019-03-20T00:23:41.501Z,6.15
2019-03-20T00:26:13.356Z,6.07
2019-03-20T00:28:44.654Z,6.41
2019-03-20T00:31:16.095Z,6.47
2019-03-20T00:33:47.359Z,6.58
2019-03-20T00:36:20.058Z,6.44
2019-03-20T00:38:51.464Z,6.55
2019-03-20T00:41:22.748Z,6.41
2019-03-20T00:43:55.014Z,6.21
2019-03-20T00:46:26.413Z,6.13
2019-03-20T00:48:57.939Z,6.37
2019-03-20T00:51:29.205Z,6.39
2019-03-20T00:54:00.640Z,6.32
2019-03-20T00:56:32.095Z,6.22
2019-03-20T00:59:03.435Z,6.23
2019-03-20T01:01:34.768Z,6.15
2019-03-20T01:04:06.009Z,6.04
2019-03-20T01:06:37.279Z,5.96
2019-03-20T01:09:08.574Z,5.88
2019-03-20T01:11:39.820Z,5.99
2019-03-20T01:14:11.158Z,5.84
2019-03-20T01:16:42.564Z,5.87
2019-03-20T01:19:13.976Z,5.96
2019-03-20T01:21:45.401Z,5.88
2019-03-20T01:24:16.815Z,5.94
2019-03-20T01:26:48.100Z,5.55
2019-03-20T01:29:19.502Z,5.68
2019-03-20T01:31:50.915Z,5.63
2019-03-20T01:34:22.186Z,5.78
2019-03-20T01:36:53.503Z,5.74
2019-03-20T01:39:24.847Z,5.69
2019-03-20T01:41:56.226Z,5.62
2019-03-20T01:44:27.694Z,5.54
2019-03-20T01:47:00.268Z,5.53
2019-03-20T01:49:31.645Z,5.36
2019-03-20T01:52:03.020Z,5.38
2019-03-20T01:54:34.487Z,5.33
2019-03-20T01:57:06.413Z,5.46
2019-03-20T01:59:37.794Z,5.44
2019-03-20T02:02:09.007Z,5.24
2019-03-20T02:04:40.531Z,5.20
2019-03-20T02:07:11.909Z,5.20
2019-03-20T02:09:43.283Z,4.95
2019-03-20T02:12:14.606Z,4.97
2019-03-20T02:14:46.025Z,5.06
2019-03-20T02:17:17.468Z,5.03
2019-03-20T02:19:48.886Z,4.95
2019-03-20T02:22:20.731Z,4.92
2019-03-20T02:24:51.932Z,4.89
2019-03-20T02:27:23.294Z,4.83
2019-03-20T02:29:54.551Z,4.71
2019-03-20T02:32:25.910Z,4.76
2019-03-20T02:34:57.355Z,4.59
2019-03-20T02:37:28.715Z,4.46
2019-03-20T02:39:59.983Z,4.27
2019-03-20T02:42:31.268Z,4.54
2019-03-20T02:45:02.576Z,4.56
2019-03-20T02:47:34.975Z,4.47
2019-03-20T02:50:08.667Z,4.40
2019-03-20T02:52:40.132Z,4.30
2019-03-20T02:55:12.286Z,4.40
2019-03-20T02:57:43.596Z,4.20
2019-03-20T03:00:19.840Z,4.07
2019-03-20T03:02:51.110Z,4.14
2019-03-20T03:05:22.387Z,4.57
2019-03-20T03:07:53.814Z,4.57
2019-03-20T03:10:25.219Z,4.46
2019-03-20T03:12:56.543Z,4.46
2019-03-20T03:15:27.914Z,4.59
2019-03-20T03:17:59.324Z,4.55
2019-03-20T03:20:30.665Z,4.40
2019-03-20T03:23:01.960Z,4.31
2019-03-20T03:25:33.249Z,4.31
2019-03-20T03:28:04.648Z,4.24
2019-03-20T03:30:35.976Z,4.14
2019-03-20T03:33:07.355Z,4.20
2019-03-20T03:35:38.839Z,4.18
2019-03-20T03:38:10.177Z,4.17
2019-03-20T03:40:41.500Z,4.17
2019-03-20T03:43:12.857Z,4.14
2019-03-20T03:45:44.298Z,4.16
2019-03-20T03:48:15.637Z,4.19
2019-03-20T03:50:48.417Z,4.23
2019-03-20T03:53:20.166Z,4.27
2019-03-20T03:55:51.538Z,4.39
2019-03-20T03:58:22.866Z,4.41
2019-03-20T04:00:54.217Z,4.38
2019-03-20T04:03:25.638Z,4.30
2019-03-20T04:05:57.017Z,4.41
2019-03-20T04:08:28.298Z,4.31
2019-03-20T04:10:59.677Z,4.48
2019-03-20T04:13:30.900Z,4.46
2019-03-20T04:16:02.309Z,4.56
2019-03-20T04:18:33.858Z,4.48
2019-03-20T04:21:05.153Z,4.69
2019-03-20T04:23:36.509Z,4.69
2019-03-20T04:26:07.840Z,4.61
2019-03-20T04:28:39.216Z,4.51
2019-03-20T04:31:10.643Z,4.34
2019-03-20T04:33:41.923Z,4.44
2019-03-20T04:36:13.361Z,4.48
2019-03-20T04:38:44.869Z,4.49
2019-03-20T04:41:16.380Z,4.73
2019-03-20T04:43:47.732Z,4.35
2019-03-20T04:46:19.160Z,4.38
2019-03-20T04:48:50.426Z,4.55
2019-03-20T04:51:21.788Z,4.26
2019-03-20T04:53:53.228Z,4.25
2019-03-20T04:56:24.552Z,3.94
2019-03-20T04:58:55.900Z,4.35
2019-03-20T05:01:27.322Z,4.35
2019-03-20T05:03:58.508Z,4.41
2019-03-20T05:06:29.831Z,4.43
2019-03-20T05:09:01.285Z,4.48
2019-03-20T05:11:32.904Z,4.68
2019-03-20T05:14:04.344Z,4.50
2019-03-20T05:16:35.693Z,4.52
2019-03-20T05:19:06.973Z,4.52
2019-03-20T05:21:38.281Z,4.45
2019-03-20T05:24:09.622Z,4.51
2019-03-20T05:26:41.028Z,4.68
2019-03-20T05:29:12.368Z,4.67
2019-03-20T05:31:44.689Z,4.53
2019-03-20T05:34:16.027Z,4.69
2019-03-20T05:36:47.361Z,3.96
2019-03-20T05:39:18.672Z,4.18
2019-03-20T05:41:50.083Z,4.21
2019-03-20T05:44:21.455Z,4.07
2019-03-20T05:46:52.786Z,4.08
2019-03-20T05:49:24.209Z,4.66
2019-03-20T05:51:55.456Z,4.22
2019-03-20T05:54:26.881Z,4.54
2019-03-20T05:56:58.352Z,4.48
2019-03-20T05:59:29.732Z,4.76
2019-03-20T06:02:01.043Z,4.69
2019-03-20T06:04:32.507Z,4.86
2019-03-20T06:07:03.944Z,4.86
2019-03-20T06:09:35.315Z,4.83
2019-03-20T06:12:06.693Z,5.16
2019-03-20T06:14:38.102Z,5.06
2019-03-20T06:17:09.364Z,4.52
2019-03-20T06:19:40.828Z,4.63
2019-03-20T06:22:12.222Z,4.74
2019-03-20T06:24:43.671Z,4.77
2019-03-20T06:27:15.035Z,4.38
2019-03-20T06:29:46.465Z,4.72
2019-03-20T06:32:17.866Z,4.35
2019-03-20T06:34:49.261Z,4.29
2019-03-20T06:37:20.709Z,4.72
2019-03-20T06:39:53.386Z,4.46
2019-03-20T06:42:25.200Z,4.81
2019-03-20T06:44:56.557Z,4.69
2019-03-20T06:47:27.941Z,5.02
2019-03-20T06:50:00.273Z,5.02
2019-03-20T06:52:32.392Z,4.77
2019-03-20T06:55:04.138Z,5.16
2019-03-20T06:57:35.493Z,5.23
2019-03-20T07:00:39.981Z,4.92
2019-03-20T07:03:29.232Z,5.48
2019-03-20T07:06:22.014Z,5.56
2019-03-20T07:09:17.965Z,4.72
2019-03-20T07:11:49.319Z,4.94
2019-03-20T07:14:20.730Z,5.75
2019-03-20T07:16:52.072Z,6.05
2019-03-20T07:19:23.454Z,6.23
2019-03-20T07:21:54.985Z,6.03
2019-03-20T07:24:26.376Z,6.21
2019-03-20T07:26:57.744Z,5.41
2019-03-20T07:29:29.238Z,5.82
2019-03-20T07:32:00.668Z,5.42
2019-03-20T07:34:32.054Z,5.87
2019-03-20T07:37:03.384Z,6.36
2019-03-20T07:39:34.769Z,6.36
2019-03-20T07:42:06.126Z,6.41
2019-03-20T07:44:37.584Z,6.50
2019-03-20T07:47:08.940Z,6.75
2019-03-20T07:49:40.295Z,7.00
2019-03-20T07:52:11.665Z,6.76
2019-03-20T07:54:43.102Z,6.92
2019-03-20T07:57:14.493Z,7.02
2019-03-20T07:59:45.815Z,7.33
2019-03-20T08:02:17.163Z,7.46
2019-03-20T08:04:48.519Z,7.51
2019-03-20T08:07:19.786Z,7.97
2019-03-20T08:09:51.030Z,8.06
2019-03-20T08:12:22.460Z,7.74
2019-03-20T08:14:53.971Z,7.81
2019-03-20T08:17:25.301Z,7.53
2019-03-20T08:19:56.561Z,7.82
2019-03-20T08:22:27.959Z,7.62
2019-03-20T08:24:59.404Z,7.90
2019-03-20T08:27:30.809Z,8.29
2019-03-20T08:30:02.140Z,8.66
2019-03-20T08:32:33.476Z,8.28
2019-03-20T08:35:07.455Z,8.81
2019-03-20T08:37:38.990Z,8.86
2019-03-20T08:40:15.508Z,8.81
2019-03-20T08:42:46.849Z,8.97
2019-03-20T08:45:19.463Z,9.58
2019-03-20T08:47:50.860Z,9.43
2019-03-20T08:50:25.990Z,10.13
2019-03-20T08:52:57.382Z,9.82
2019-03-20T08:55:28.753Z,9.86
2019-03-20T08:58:00.190Z,10.03
2019-03-20T09:00:31.490Z,10.53
2019-03-20T09:03:02.871Z,10.55
2019-03-20T09:05:34.355Z,11.09
2019-03-20T09:08:05.747Z,10.59
2019-03-20T09:10:37.091Z,10.42
2019-03-20T09:13:08.493Z,10.91
2019-03-20T09:15:39.865Z,11.01
2019-03-20T09:18:11.257Z,11.01
2019-03-20T09:20:42.633Z,10.98
2019-03-20T09:23:14.129Z,10.91
2019-03-20T09:25:45.412Z,10.72
2019-03-20T09:28:16.754Z,10.73
2019-03-20T09:30:48.071Z,11.21
2019-03-20T09:33:19.529Z,11.78
2019-03-20T09:35:50.954Z,11.89
2019-03-20T09:38:22.292Z,12.27
2019-03-20T09:40:53.653Z,12.38
2019-03-20T09:43:25.084Z,12.07
2019-03-20T09:45:57.128Z,11.77
2019-03-20T09:48:28.822Z,11.86
2019-03-20T09:51:00.284Z,11.80
2019-03-20T09:53:31.625Z,12.44
2019-03-20T09:56:03.203Z,12.71
2019-03-20T09:58:34.633Z,12.47
2019-03-20T10:01:06.029Z,12.77
2019-03-20T10:03:37.296Z,13.09
2019-03-20T10:06:08.627Z,12.28
2019-03-20T10:08:39.925Z,12.78
2019-03-20T10:11:11.209Z,13.20
2019-03-20T10:13:42.476Z,13.74
2019-03-20T10:16:13.866Z,13.82
2019-03-20T10:18:45.227Z,13.53
2019-03-20T10:21:16.512Z,13.53
2019-03-20T10:23:47.779Z,13.51
2019-03-20T10:26:19.106Z,13.70
2019-03-20T10:28:50.486Z,14.01
2019-03-20T10:31:21.872Z,13.64
2019-03-20T10:33:53.272Z,13.96
2019-03-20T10:36:24.702Z,13.86
2019-03-20T10:39:05.932Z,14.17
2019-03-20T10:41:29.205Z,14.39
2019-03-20T10:44:00.649Z,14.45
2019-03-20T10:46:31.970Z,14.43
2019-03-20T10:49:03.332Z,14.70
2019-03-20T10:51:34.613Z,14.50
2019-03-20T10:54:07.279Z,14.58
2019-03-20T10:56:40.619Z,14.47
2019-03-20T10:59:11.906Z,14.44
2019-03-20T11:01:43.372Z,14.00
2019-03-20T11:04:14.709Z,14.18
2019-03-20T11:06:46.006Z,14.20
2019-03-20T11:09:18.701Z,14.06
2019-03-20T11:11:51.373Z,13.53
2019-03-20T11:14:22.893Z,13.52
2019-03-20T11:16:54.393Z,14.41
2019-03-20T11:19:25.721Z,14.55
2019-03-20T11:21:57.092Z,14.63
2019-03-20T11:24:28.340Z,14.99
2019-03-20T11:26:59.799Z,15.24
2019-03-20T11:29:31.231Z,14.59
2019-03-20T11:32:02.490Z,14.52
2019-03-20T11:34:33.738Z,15.02
2019-03-20T11:37:05.136Z,14.91
2019-03-20T11:39:36.535Z,14.65
2019-03-20T11:42:07.867Z,14.92
2019-03-20T11:44:39.271Z,15.01
2019-03-20T11:47:10.638Z,15.20
2019-03-20T11:49:43.101Z,15.15
2019-03-20T11:52:14.378Z,15.34
2019-03-20T11:54:45.811Z,15.52
2019-03-20T11:57:17.156Z,15.31
2019-03-20T11:59:48.470Z,15.04
2019-03-20T12:02:27.983Z,15.35
2019-03-20T12:04:54.076Z,15.29
2019-03-20T12:07:25.711Z,15.70
2019-03-20T12:09:58.845Z,15.20
2019-03-20T12:12:30.333Z,15.32
2019-03-20T12:15:01.685Z,15.64
2019-03-20T12:17:32.961Z,15.04
2019-03-20T12:20:07.805Z,15.55
2019-03-20T12:22:39.201Z,15.45
2019-03-20T12:25:13.573Z,15.46
2019-03-20T12:27:44.996Z,15.65
2019-03-20T12:30:20.576Z,15.58
2019-03-20T12:32:51.972Z,15.36
2019-03-20T12:35:24.688Z,15.62
2019-03-20T12:37:56.025Z,16.11
2019-03-20T12:40:31.632Z,16.10
2019-03-20T12:43:03.027Z,15.83
2019-03-20T12:45:38.416Z,16.11
2019-03-20T12:48:11.423Z,15.86
2019-03-20T12:50:44.072Z,16.22
2019-03-20T12:53:30.709Z,16.68
2019-03-20T12:56:02.077Z,15.62
2019-03-20T12:58:33.333Z,15.96
2019-03-20T13:01:04.779Z,15.49
2019-03-20T13:03:36.205Z,15.25
2019-03-20T13:06:07.562Z,15.29
2019-03-20T13:08:38.879Z,15.27
2019-03-20T13:11:10.340Z,15.51
2019-03-20T13:13:41.708Z,15.32
2019-03-20T13:16:13.043Z,15.51
2019-03-20T13:18:44.442Z,15.11
2019-03-20T13:21:15.762Z,15.10
2019-03-20T13:23:47.146Z,15.23
2019-03-20T13:26:18.525Z,15.25
2019-03-20T13:28:49.856Z,15.27
2019-03-20T13:31:23.355Z,15.51
2019-03-20T13:33:54.616Z,15.37
2019-03-20T13:36:25.983Z,15.11
2019-03-20T13:38:57.405Z,15.36
2019-03-20T13:41:28.775Z,15.13
2019-03-20T13:44:00.023Z,15.04
2019-03-20T13:46:31.428Z,15.08
2019-03-20T13:49:02.772Z,14.91
2019-03-20T13:51:34.123Z,14.79
2019-03-20T13:54:05.674Z,14.84
2019-03-20T13:56:36.980Z,15.17
2019-03-20T13:59:08.299Z,15.03
2019-03-20T14:01:39.687Z,14.88
2019-03-20T14:04:10.952Z,14.95
2019-03-20T14:06:42.280Z,15.01
2019-03-20T14:09:13.712Z,14.66
2019-03-20T14:11:45.128Z,14.81
2019-03-20T14:14:16.439Z,14.91
2019-03-20T14:16:47.748Z,14.71
2019-03-20T14:19:20.742Z,14.67
2019-03-20T14:21:54.029Z,14.44
2019-03-20T14:24:25.717Z,14.67
2019-03-20T14:27:02.198Z,14.93
2019-03-20T14:29:33.509Z,14.59
2019-03-20T14:32:04.860Z,14.56
2019-03-20T14:34:36.155Z,14.52
2019-03-20T14:37:07.550Z,14.28
2019-03-20T14:39:38.958Z,14.44
2019-03-20T14:42:10.308Z,14.44
2019-03-20T14:44:42.712Z,14.26
2019-03-20T14:47:14.092Z,14.21
2019-03-20T14:49:45.582Z,14.02
2019-03-20T14:52:16.812Z,14.11
2019-03-20T14:54:48.182Z,13.96
2019-03-20T14:57:19.476Z,14.03
2019-03-20T14:59:50.866Z,14.08
2019-03-20T15:02:22.177Z,13.84
2019-03-20T15:04:53.511Z,13.76
2019-03-20T15:07:24.964Z,13.74
2019-03-20T15:09:56.398Z,13.66
2019-03-20T15:12:27.726Z,13.67
2019-03-20T15:14:59.191Z,13.54
2019-03-20T15:17:30.503Z,13.60
2019-03-20T15:20:02.020Z,13.48
2019-03-20T15:22:33.323Z,13.41
2019-03-20T15:25:07.083Z,13.56
2019-03-20T15:27:38.338Z,13.37
2019-03-20T15:30:18.835Z,13.45
2019-03-20T15:32:50.140Z,13.22
2019-03-20T15:35:21.550Z,13.26
2019-03-20T15:37:52.903Z,13.16
2019-03-20T15:40:26.387Z,12.87
2019-03-20T15:42:57.780Z,12.75
2019-03-20T15:45:29.094Z,12.84
2019-03-20T15:48:00.503Z,12.53
2019-03-20T15:50:31.855Z,12.55
2019-03-20T15:53:03.134Z,12.36
2019-03-20T15:55:39.575Z,12.41
2019-03-20T15:58:10.847Z,12.38
2019-03-20T16:00:42.202Z,12.22
2019-03-20T16:03:23.506Z,12.04
2019-03-20T16:05:55.595Z,11.94
2019-03-20T16:08:26.952Z,11.70
2019-03-20T16:11:06.169Z,11.53
2019-03-20T16:13:36.366Z,11.49
2019-03-20T16:16:19.956Z,11.34
2019-03-20T16:18:53.047Z,11.18
2019-03-20T16:21:24.455Z,11.21
2019-03-20T16:23:55.713Z,11.37
2019-03-20T16:26:27.141Z,11.39
2019-03-20T16:28:58.339Z,11.16
2019-03-20T16:31:29.788Z,10.97
2019-03-20T16:34:01.233Z,11.02
2019-03-20T16:36:32.632Z,11.14
2019-03-20T16:39:05.549Z,11.26
2019-03-20T16:41:36.877Z,11.29
2019-03-20T16:44:08.192Z,11.15
2019-03-20T16:46:39.599Z,11.05
2019-03-20T16:49:10.868Z,10.89
2019-03-20T16:51:42.264Z,10.94
2019-03-20T16:54:13.591Z,10.75
2019-03-20T16:56:44.921Z,10.52
2019-03-20T16:59:16.286Z,10.36
2019-03-20T17:01:47.653Z,10.30
2019-03-20T17:04:19.107Z,10.27
2019-03-20T17:06:50.504Z,10.14
2019-03-20T17:09:21.877Z,10.16
2019-03-20T17:11:53.351Z,10.11
2019-03-20T17:14:24.698Z,10.15
2019-03-20T17:16:56.164Z,9.96
2019-03-20T17:19:27.584Z,9.93
2019-03-20T17:21:58.953Z,9.85
2019-03-20T17:24:31.348Z,9.82
2019-03-20T17:27:02.770Z,9.61
2019-03-20T17:29:34.092Z,9.67
2019-03-20T17:32:05.503Z,9.61
2019-03-20T17:34:36.892Z,9.68
2019-03-20T17:37:08.280Z,9.68
2019-03-20T17:39:39.641Z,9.50
2019-03-20T17:42:10.983Z,9.58
2019-03-20T17:44:42.370Z,9.68
2019-03-20T17:47:13.784Z,9.67
2019-03-20T17:49:45.196Z,9.67
2019-03-20T17:52:16.593Z,9.73
2019-03-20T17:54:47.951Z,9.54
2019-03-20T17:57:19.373Z,9.33
2019-03-20T17:59:50.706Z,9.42
2019-03-20T18:02:24.249Z,9.58
2019-03-20T18:04:55.132Z,9.51
2019-03-20T18:07:26.526Z,9.34
2019-03-20T18:09:57.922Z,9.26
2019-03-20T18:12:29.266Z,9.49
2019-03-20T18:15:00.631Z,9.36
2019-03-20T18:17:33.296Z,9.21
2019-03-20T18:20:07.430Z,9.36
2019-03-20T18:22:38.724Z,9.51
2019-03-20T18:25:12.832Z,9.40
2019-03-20T18:27:44.217Z,9.10
2019-03-20T18:30:27.006Z,9.13
2019-03-20T18:32:58.377Z,9.21
2019-03-20T18:35:29.785Z,8.91
2019-03-20T18:38:01.221Z,8.90
2019-03-20T18:40:32.629Z,8.86
2019-03-20T18:43:03.967Z,8.87
2019-03-20T18:45:35.342Z,8.71
2019-03-20T18:48:06.676Z,8.79
2019-03-20T18:50:39.327Z,8.58
2019-03-20T18:53:11.646Z,8.84
2019-03-20T18:55:43.053Z,8.63
2019-03-20T18:58:14.389Z,8.67
2019-03-20T19:00:45.790Z,8.62
2019-03-20T19:03:25.791Z,8.86
2019-03-20T19:06:06.517Z,8.87
2019-03-20T19:08:37.880Z,8.87
2019-03-20T19:11:09.398Z,8.59
2019-03-20T19:13:40.763Z,8.46
2019-03-20T19:16:12.085Z,8.21
2019-03-20T19:18:43.521Z,8.28
2019-03-20T19:21:14.902Z,8.08
2019-03-20T19:23:46.512Z,8.25
2019-03-20T19:26:17.809Z,7.93
2019-03-20T19:28:49.233Z,8.08
2019-03-20T19:31:20.621Z,8.20
2019-03-20T19:33:52.096Z,7.97
2019-03-20T19:36:23.415Z,8.14
2019-03-20T19:38:54.794Z,8.05
2019-03-20T19:41:26.178Z,7.91
2019-03-20T19:43:57.572Z,8.08
2019-03-20T19:46:28.915Z,7.72
2019-03-20T19:49:00.339Z,7.92
2019-03-20T19:51:31.717Z,7.64
2019-03-20T19:54:04.779Z,7.91
2019-03-20T19:56:36.161Z,7.96
2019-03-20T19:59:07.527Z,7.86
2019-03-20T20:01:38.959Z,7.89
2019-03-20T20:04:10.365Z,7.69
2019-03-20T20:06:41.829Z,7.76
2019-03-20T20:09:13.244Z,7.63
2019-03-20T20:11:44.635Z,7.67
2019-03-20T20:14:16.100Z,7.80
2019-03-20T20:16:47.534Z,7.63
2019-03-20T20:19:18.886Z,7.53
2019-03-20T20:21:50.152Z,7.86
2019-03-20T20:24:21.547Z,7.87
2019-03-20T20:26:52.834Z,7.98
2019-03-20T20:29:24.186Z,7.89
2019-03-20T20:31:55.523Z,7.76
2019-03-20T20:34:26.936Z,7.71
2019-03-20T20:36:58.278Z,7.72
2019-03-20T20:39:29.646Z,7.79
2019-03-20T20:42:00.932Z,7.63
2019-03-20T20:44:32.253Z,7.52
2019-03-20T20:47:04.038Z,7.68
2019-03-20T20:49:35.348Z,7.81
2019-03-20T20:52:06.664Z,7.74
2019-03-20T20:54:38.056Z,7.68
2019-03-20T20:57:09.419Z,7.69
2019-03-20T20:59:40.733Z,7.64
2019-03-20T21:02:12.098Z,7.75
2019-03-20T21:04:43.523Z,7.58
2019-03-20T21:07:14.918Z,7.60
2019-03-20T21:09:46.338Z,7.52
2019-03-20T21:12:17.776Z,7.59
2019-03-20T21:14:49.175Z,7.38
2019-03-20T21:17:23.682Z,7.58
2019-03-20T21:19:55.011Z,7.77
2019-03-20T21:22:35.371Z,7.56
2019-03-20T21:25:06.796Z,7.57
2019-03-20T21:28:03.702Z,7.76
2019-03-20T21:30:50.001Z,7.62
2019-03-20T21:33:33.432Z,7.40
2019-03-20T21:36:39.523Z,7.37
2019-03-20T21:39:11.051Z,7.70
2019-03-20T21:42:11.458Z,7.57
2019-03-20T21:45:02.528Z,7.49
2019-03-20T21:47:33.634Z,7.41
2019-03-20T21:50:27.329Z,7.35
2019-03-20T21:52:58.639Z,7.43
2019-03-20T21:55:49.720Z,7.26
2019-03-20T21:58:27.000Z,7.41
2019-03-20T22:01:27.276Z,7.46
2019-03-20T22:03:58.501Z,7.34
2019-03-20T22:06:54.273Z,7.17
2019-03-20T22:09:34.600Z,7.49
2019-03-20T22:12:30.230Z,7.50
2019-03-20T22:15:13.644Z,7.42
2019-03-20T22:18:09.454Z,7.51
2019-03-20T22:20:56.138Z,7.41
2019-03-20T22:23:33.569Z,7.33
2019-03-20T22:26:25.976Z,7.27
2019-03-20T22:29:24.849Z,7.60
2019-03-20T22:32:07.951Z,7.37
2019-03-20T22:35:00.392Z,7.27
2019-03-20T22:37:31.835Z,7.43
2019-03-20T22:40:15.086Z,7.18
2019-03-20T22:43:13.362Z,7.35
2019-03-20T22:46:02.741Z,7.38
2019-03-20T22:48:56.430Z,7.39
2019-03-20T22:51:47.457Z,7.29
2019-03-20T22:54:41.426Z,7.33
2019-03-20T22:57:28.956Z,7.46
2019-03-20T23:00:00.409Z,7.33
2019-03-20T23:02:37.608Z,7.14
2019-03-20T23:05:10.748Z,7.20
2019-03-20T23:07:42.127Z,7.11
2019-03-20T23:10:16.435Z,7.30
2019-03-20T23:12:49.647Z,7.27
2019-03-20T23:15:22.182Z,7.31
2019-03-20T23:17:53.507Z,7.28
2019-03-20T23:20:27.804Z,7.22
2019-03-20T23:22:59.218Z,7.20
2019-03-20T23:25:30.480Z,7.10
2019-03-20T23:28:01.903Z,7.32
2019-03-20T23:30:36.327Z,7.22
2019-03-20T23:33:07.730Z,7.31
2019-03-20T23:35:39.128Z,7.05
2019-03-20T23:38:10.444Z,7.06
2019-03-20T23:40:41.838Z,7.16
2019-03-20T23:43:14.443Z,7.22
2019-03-20T23:45:45.721Z,7.21
2019-03-20T23:48:32.171Z,6.95
2019-03-20T23:51:06.617Z,7.16
2019-03-20T23:53:39.131Z,7.13
2019-03-20T23:56:10.577Z,6.88
2019-03-20T23:58:41.973Z,7.04
